Time;durP1;ratioP1;P1;durP2;ratioP2;P2;SDS_P1;SDS_P2;PMS_P1;PMS_P2;Temp;Humidity;BMP_temperature;BMP_pressure;BME280_temperature;BME280_humidity;BME280_pressure;Samples;Min_cycle;Max_cycle;Signal;HPM_P1;HPM_P2
2021/06/02 00:01:56;;;;;;;5.95;3.45;;;;;;;10.25;72.46;99968.77;1752476;80;20949;-73
2021/06/02 00:04:25;;;;;;;5.28;3.27;;;;;;;10.21;72.67;99977.86;1717051;81;21832;-72
2021/06/02 00:06:55;;;;;;;5.25;3.27;;;;;;;10.19;72.54;99985.08;1735725;80;21082;-72
2021/06/02 00:09:23;;;;;;;5.95;3.50;;;;;;;10.18;72.64;99987.84;1763509;79;21011;-72
2021/06/02 00:11:55;;;;;;;5.37;3.30;;;;;;;10.15;72.78;99981.52;1755121;79;21115;-72
2021/06/02 00:14:20;;;;;;;5.03;3.65;;;;;;;10.13;73.12;99972.38;1753379;80;21398;-72
2021/06/02 00:16:48;;;;;;;5.60;3.55;;;;;;;10.11;73.24;99976.13;1730209;80;21732;-72
2021/06/02 00:19:15;;;;;;;5.92;3.40;;;;;;;10.07;73.51;99977.36;1743813;80;20961;-72
2021/06/02 00:21:42;;;;;;;4.03;3.17;;;;;;;10.03;73.68;99966.20;1711757;81;20993;-72
2021/06/02 00:24:11;;;;;;;6.45;3.40;;;;;;;10.01;73.85;99970.78;1762266;79;21062;-72
2021/06/02 00:26:37;;;;;;;13.35;4.90;;;;;;;9.99;74.08;99980.63;1756076;79;21051;-72
2021/06/02 00:29:07;;;;;;;6.10;3.80;;;;;;;9.94;74.40;99977.52;1740888;80;21919;-72
2021/06/02 00:31:38;;;;;;;7.70;3.62;;;;;;;9.90;74.64;99984.03;1746369;79;21000;-73
2021/06/02 00:34:06;;;;;;;7.87;3.55;;;;;;;9.88;74.98;99977.56;1761682;80;20983;-72
2021/06/02 00:36:32;;;;;;;5.97;3.35;;;;;;;9.86;75.24;99979.98;1749477;80;21039;-72
2021/06/02 00:39:00;;;;;;;5.58;3.80;;;;;;;9.83;75.70;99983.69;1716694;81;21059;-72
2021/06/02 00:41:29;;;;;;;4.60;3.80;;;;;;;9.78;75.85;99975.81;1709423;82;21793;-72
2021/06/02 00:43:56;;;;;;;5.30;3.60;;;;;;;9.77;76.09;99973.66;1662529;83;20961;-72
2021/06/02 00:46:22;;;;;;;6.42;4.12;;;;;;;9.75;76.36;99974.28;1735169;81;20992;-71
2021/06/02 00:48:50;;;;;;;4.95;3.65;;;;;;;9.72;76.59;99969.23;1709855;81;20994;-72
2021/06/02 00:51:19;;;;;;;5.80;3.52;;;;;;;9.70;76.67;99974.64;1707880;81;21052;-71
2021/06/02 00:53:45;;;;;;;7.37;3.90;;;;;;;9.72;76.81;99981.94;1735834;80;21823;-71
2021/06/02 00:56:12;;;;;;;4.45;3.27;;;;;;;9.72;76.81;99966.11;1761105;79;21036;-72
2021/06/02 00:58:48;;;;;;;4.72;3.20;;;;;;;9.71;76.77;99981.58;1754642;80;21084;-73
2021/06/02 01:01:16;;;;;;;5.25;3.70;;;;;;;9.72;76.74;99971.39;1742954;80;21008;-73
2021/06/02 01:03:43;;;;;;;5.85;3.70;;;;;;;9.73;76.73;99969.10;1751300;79;21237;-72
2021/06/02 01:06:09;;;;;;;3.75;3.45;;;;;;;9.77;76.75;99971.51;1759857;79;21855;-73
2021/06/02 01:08:37;;;;;;;4.37;3.50;;;;;;;9.78;76.64;99970.55;1734028;80;21076;-73
2021/06/02 01:11:04;;;;;;;4.05;3.58;;;;;;;9.76;76.60;99971.99;1745477;79;21145;-72
2021/06/02 01:13:34;;;;;;;6.08;3.70;;;;;;;9.75;76.56;99968.52;1761243;80;20972;-72
2021/06/02 01:16:01;;;;;;;5.80;3.80;;;;;;;9.76;76.51;99970.67;1767796;80;21039;-72
2021/06/02 01:18:28;;;;;;;10.85;3.92;;;;;;;9.76;76.54;99958.80;1763540;80;22572;-73
2021/06/02 01:20:55;;;;;;;5.75;3.50;;;;;;;9.76;76.60;99961.45;1747035;80;21091;-72
2021/06/02 01:23:21;;;;;;;5.65;3.25;;;;;;;9.74;76.74;99960.70;1747135;80;21008;-73
2021/06/02 01:25:48;;;;;;;7.17;3.45;;;;;;;9.71;76.93;99957.84;1770175;80;20996;-74
2021/06/02 01:28:14;;;;;;;8.35;3.37;;;;;;;9.68;77.01;99969.14;1747246;80;21430;-74
2021/06/02 01:30:41;;;;;;;12.45;3.67;;;;;;;9.66;77.14;99968.44;1747283;80;21826;-73
2021/06/02 01:33:49;;;;;;;5.58;3.40;;;;;;;9.66;77.29;99965.32;1747095;79;21028;-73
2021/06/02 01:36:24;;;;;;;7.58;3.40;;;;;;;9.68;77.54;99969.14;1744263;79;21504;-73
2021/06/02 01:39:21;;;;;;;6.37;3.85;;;;;;;9.66;77.76;99968.44;1718415;80;20968;-73
2021/06/02 01:42:25;;;;;;;6.35;3.58;;;;;;;9.62;78.09;99967.83;1747438;81;20935;-73
2021/06/02 01:45:11;;;;;;;7.30;3.67;;;;;;;9.58;78.34;99969.06;1767853;79;21828;-72
2021/06/02 01:48:25;;;;;;;10.95;4.08;;;;;;;9.54;78.82;99958.88;1751985;79;21250;-73
2021/06/02 01:51:38;;;;;;;5.62;3.70;;;;;;;9.45;79.06;99962.61;1686304;83;21493;-73
2021/06/02 01:54:52;;;;;;;7.10;3.67;;;;;;;9.44;79.38;99966.69;1583496;87;21032;-71
2021/06/02 01:57:54;;;;;;;3.80;3.17;;;;;;;9.41;79.60;99962.52;1606749;86;21004;-72
2021/06/02 02:00:55;;;;;;;5.20;3.40;;;;;;;9.40;79.83;99975.34;1759427;80;21541;-73
2021/06/02 02:03:40;;;;;;;4.37;3.37;;;;;;;9.39;79.98;99965.77;1757805;80;20902;-71
2021/06/02 02:06:46;;;;;;;7.53;3.60;;;;;;;9.40;80.14;99964.80;1756106;80;21071;-72
2021/06/02 02:09:31;;;;;;;5.90;3.55;;;;;;;9.43;80.31;99962.38;1747027;80;21384;-71
2021/06/02 02:12:56;;;;;;;4.85;3.35;;;;;;;9.43;80.57;99969.81;1751439;80;20928;-71
2021/06/02 02:15:50;;;;;;;4.97;3.62;;;;;;;9.42;80.74;99973.89;1753047;80;21798;-72
2021/06/02 02:18:24;;;;;;;4.22;3.65;;;;;;;9.38;80.96;99964.09;1715274;82;21505;-72
2021/06/02 02:21:05;;;;;;;6.15;3.67;;;;;;;9.36;81.26;99969.97;1734297;82;21029;-71
2021/06/02 02:23:41;;;;;;;4.92;3.72;;;;;;;9.29;81.50;99966.15;1677588;82;21039;-72
2021/06/02 02:26:30;;;;;;;5.00;3.83;;;;;;;9.27;81.83;99970.72;1710001;82;20956;-72
2021/06/02 02:29:23;;;;;;;5.50;3.83;;;;;;;9.25;81.99;99963.87;1721697;81;21816;-71
2021/06/02 02:32:13;;;;;;;4.80;3.60;;;;;;;9.26;82.22;99976.08;1763841;80;28882;-71
2021/06/02 02:35:00;;;;;;;5.10;3.72;;;;;;;9.28;82.48;99967.11;1765347;80;21051;-71
2021/06/02 02:38:06;;;;;;;4.50;3.60;;;;;;;9.28;82.70;99958.38;1740342;80;21043;-72
2021/06/02 02:40:56;;;;;;;7.28;4.10;;;;;;;9.28;82.89;99959.20;1740153;80;21422;-72
2021/06/02 02:44:09;;;;;;;4.35;3.58;;;;;;;9.26;83.06;99962.42;1757273;79;21813;-72
2021/06/02 02:46:41;;;;;;;4.97;4.12;;;;;;;9.25;83.27;99966.50;1638703;83;21124;-71
2021/06/02 02:49:43;;;;;;;;;;;;;;;9.25;83.40;99968.66;1735278;81;20964;-71
2021/06/02 02:52:39;;;;;;;6.30;3.92;;;;;;;9.25;83.55;99966.02;1741787;80;20235;-71
2021/06/02 02:55:21;;;;;;;3.92;3.50;;;;;;;9.24;83.67;99963.52;1725915;80;21089;-71
2021/06/02 02:58:11;;;;;;;6.83;3.70;;;;;;;9.25;83.72;99965.19;1728185;80;21825;-71
2021/06/02 03:00:48;;;;;;;5.40;3.50;;;;;;;9.27;83.85;99968.08;1708892;82;21048;-71
2021/06/02 03:03:24;;;;;;;4.65;4.08;;;;;;;9.27;83.89;99965.44;1681964;83;21020;-71
2021/06/02 03:06:04;;;;;;;3.80;3.40;;;;;;;9.28;83.98;99964.48;1711782;81;21040;-72
2021/06/02 03:09:06;;;;;;;4.03;3.60;;;;;;;9.28;84.05;99973.70;1754119;80;21022;-71
2021/06/02 03:11:47;;;;;;;5.25;4.15;;;;;;;9.30;84.09;99976.20;1743614;79;21891;-73
2021/06/02 03:14:25;;;;;;;4.50;3.72;;;;;;;9.29;84.09;99981.96;1753558;79;21425;-71
2021/06/02 03:17:22;;;;;;;5.40;4.20;;;;;;;9.33;84.14;99977.27;1742842;79;21016;-72
2021/06/02 03:19:54;;;;;;;4.40;3.40;;;;;;;9.35;84.15;99974.02;1743070;80;20996;-71
2021/06/02 03:22:27;;;;;;;4.87;3.35;;;;;;;9.35;84.11;99977.98;1740369;79;20983;-71
2021/06/02 03:25:22;;;;;;;5.72;3.70;;;;;;;9.34;84.12;99972.35;1748639;80;22472;-73
2021/06/02 03:28:10;;;;;;;3.40;3.00;;;;;;;9.33;84.14;99974.63;1760634;80;21004;-71
2021/06/02 03:30:53;;;;;;;4.92;3.35;;;;;;;9.37;84.15;99972.97;1686938;82;21438;-71
2021/06/02 03:33:44;;;;;;;6.00;3.58;;;;;;;9.35;84.15;99972.70;1681347;84;21020;-72
2021/06/02 03:36:37;;;;;;;5.87;3.70;;;;;;;9.34;84.26;99969.72;1759030;80;21568;-72
2021/06/02 03:39:49;;;;;;;4.97;3.15;;;;;;;9.34;84.33;99972.35;1749276;80;22224;-72
2021/06/02 03:42:33;;;;;;;4.45;3.33;;;;;;;9.36;84.39;99973.06;1746221;78;20928;-72
2021/06/02 03:45:23;;;;;;;4.25;3.35;;;;;;;9.35;84.42;99964.80;1760171;80;21085;-72
2021/06/02 03:48:10;;;;;;;4.12;3.50;;;;;;;9.30;84.49;99961.72;1741257;80;21390;-68
2021/06/02 03:50:52;;;;;;;5.87;3.90;;;;;;;9.28;84.54;99959.69;1730376;80;21435;-68
2021/06/02 03:53:48;;;;;;;5.37;3.50;;;;;;;9.29;84.67;99964.00;1735494;79;21829;-70
2021/06/02 03:56:38;;;;;;;5.22;3.58;;;;;;;9.31;84.77;99968.66;1768826;80;20979;-70
2021/06/02 03:59:39;;;;;;;4.00;3.52;;;;;;;9.31;84.84;99972.61;1755883;79;21391;-68
2021/06/02 04:02:51;;;;;;;3.85;3.25;;;;;;;9.34;84.96;99967.08;1764870;80;21169;-70
2021/06/02 04:05:41;;;;;;;5.42;3.75;;;;;;;9.32;85.00;99961.94;1770143;80;21008;-70
2021/06/02 04:08:23;;;;;;;5.28;3.70;;;;;;;9.30;85.05;99964.34;1738689;80;21846;-69
2021/06/02 04:11:37;;;;;;;4.00;3.60;;;;;;;9.32;85.10;99965.89;1764780;79;20984;-68
2021/06/02 04:14:06;;;;;;;7.58;3.50;;;;;;;9.35;85.15;99966.95;1710870;80;21008;-68
2021/06/02 04:16:37;;;;;;;3.87;3.37;;;;;;;9.35;85.21;99967.44;1760120;80;21070;-69
2021/06/02 04:19:06;;;;;;;4.30;3.22;;;;;;;9.36;85.23;99968.66;1743053;80;21447;-70
2021/06/02 04:21:36;;;;;;;3.92;3.20;;;;;;;9.37;85.29;99967.69;1762494;79;21833;-68
2021/06/02 04:24:06;;;;;;;4.83;3.33;;;;;;;9.35;85.33;99953.77;1758142;80;20956;-69
2021/06/02 04:26:35;;;;;;;4.67;3.25;;;;;;;9.34;85.38;99951.27;1749510;80;21020;-69
2021/06/02 04:29:06;;;;;;;6.87;3.47;;;;;;;9.33;85.39;99960.14;1740710;80;21020;-70
2021/06/02 04:31:33;;;;;;;4.17;3.27;;;;;;;9.35;85.47;99960.84;1756596;79;20960;-70
2021/06/02 04:34:00;;;;;;;3.98;3.55;;;;;;;9.35;85.52;99964.80;1730254;82;22419;-68
2021/06/02 04:36:28;;;;;;;5.05;3.42;;;;;;;9.38;85.56;99959.30;1744841;79;21062;-70
2021/06/02 04:38:57;;;;;;;4.53;3.55;;;;;;;9.41;85.63;99953.77;1758650;80;21190;-69
2021/06/02 04:41:28;;;;;;;3.60;3.17;;;;;;;9.41;85.66;99956.41;1752240;80;21072;-72
2021/06/02 04:43:57;;;;;;;4.62;3.50;;;;;;;9.43;85.72;99954.48;1769633;80;21048;-73
2021/06/02 04:46:24;;;;;;;5.25;4.75;;;;;;;9.44;85.77;99949.08;1754153;80;21832;-70
2021/06/02 04:48:52;;;;;;;5.08;3.60;;;;;;;9.46;85.87;99952.45;1744195;79;21562;-71
2021/06/02 04:52:00;;;;;;;3.65;3.10;;;;;;;9.47;85.89;99958.56;1754544;80;21502;-72
2021/06/02 04:55:13;;;;;;;3.83;3.40;;;;;;;9.50;85.91;99957.46;1758115;80;21000;-70
2021/06/02 04:58:24;;;;;;;4.33;3.10;;;;;;;9.48;85.98;99961.55;1766893;79;20956;-70
2021/06/02 05:00:59;;;;;;;4.47;3.35;;;;;;;9.48;86.02;99954.95;1740567;80;22257;-71
2021/06/02 05:03:59;;;;;;;4.60;3.20;;;;;;;9.52;86.10;99952.89;1773366;80;20924;-70
2021/06/02 05:07:06;;;;;;;3.10;2.80;;;;;;;9.54;86.15;99957.55;1737721;79;21094;-71
2021/06/02 05:10:10;;;;;;;4.70;3.12;;;;;;;9.57;86.17;99956.01;1759425;80;21624;-72
2021/06/02 05:13:29;;;;;;;5.05;3.25;;;;;;;9.57;86.21;99963.44;1755765;80;20850;-70
2021/06/02 05:16:30;;;;;;;4.40;3.40;;;;;;;9.59;86.25;99960.19;1726195;79;21776;-70
2021/06/02 05:22:47;;;;;;;4.03;3.10;;;;;;;9.61;86.34;99946.88;1732139;80;21102;-70
2021/06/02 05:25:35;;;;;;;4.47;3.10;;;;;;;9.60;86.34;99952.63;1735994;80;21056;-72
2021/06/02 05:28:47;;;;;;;3.92;3.00;;;;;;;9.61;86.37;99956.09;1757676;80;21380;-70
2021/06/02 05:32:06;;;;;;;4.33;3.30;;;;;;;9.63;86.43;99958.13;1723760;80;21831;-70
2021/06/02 05:35:21;;;;;;;3.95;3.27;;;;;;;9.64;86.49;99952.72;1763103;79;21130;-70
2021/06/02 05:38:12;;;;;;;6.22;3.30;;;;;;;9.65;86.47;99946.96;1765684;80;20937;-70
2021/06/02 05:40:50;;;;;;;3.67;2.65;;;;;;;9.67;86.52;99949.85;1761269;80;21551;-70
2021/06/02 05:43:53;;;;;;;3.42;3.10;;;;;;;9.71;86.56;99947.78;1755322;79;21048;-70
2021/06/02 05:47:08;;;;;;;4.33;3.27;;;;;;;9.71;86.54;99960.48;1756748;80;20969;-70
2021/06/02 05:50:10;;;;;;;6.42;3.10;;;;;;;9.75;86.59;99961.09;1760701;80;20953;-71
2021/06/02 05:53:02;;;;;;;5.15;3.33;;;;;;;9.79;86.60;99959.03;1752226;80;20979;-71
2021/06/02 05:56:11;;;;;;;6.05;3.83;;;;;;;9.80;86.61;99957.58;1772527;79;21431;-71
2021/06/02 05:59:32;;;;;;;4.40;3.72;;;;;;;9.82;86.61;99948.21;1754047;80;20980;-72
2021/06/02 06:02:42;;;;;;;4.72;3.72;;;;;;;9.83;86.60;99957.80;1763534;79;22687;-71
2021/06/02 06:05:29;;;;;;;5.65;4.00;;;;;;;9.86;86.55;99965.48;1761222;79;21087;-71
2021/06/02 06:08:23;;;;;;;5.17;3.80;;;;;;;9.86;86.51;99961.52;1773575;79;21336;-72
2021/06/02 06:11:21;;;;;;;4.92;3.75;;;;;;;9.89;86.52;99965.21;1770203;79;21003;-71
2021/06/02 06:14:18;;;;;;;6.47;3.45;;;;;;;9.91;86.49;99975.98;1771051;78;21456;-72
2021/06/02 06:17:34;;;;;;;4.67;3.90;;;;;;;9.93;86.49;99977.17;1765162;80;20960;-72
2021/06/02 06:20:27;;;;;;;4.22;3.30;;;;;;;9.97;86.46;99975.48;1763873;78;21052;-72
2021/06/02 06:23:25;;;;;;;5.45;3.12;;;;;;;9.98;86.41;99976.32;1754566;79;21004;-71
2021/06/02 06:25:58;;;;;;;4.22;3.67;;;;;;;10.00;86.41;99971.27;1766375;80;21016;-72
2021/06/02 06:28:55;;;;;;;4.25;3.12;;;;;;;10.03;86.32;99977.59;1753738;79;21047;-73
2021/06/02 06:31:25;;;;;;;9.25;3.20;;;;;;;10.03;86.26;99976.76;1751262;78;21834;-71
2021/06/02 06:33:51;;;;;;;6.50;3.55;;;;;;;10.03;86.19;99983.35;1735495;79;21413;-73
2021/06/02 06:36:21;;;;;;;5.35;3.90;;;;;;;10.04;86.16;99982.42;1709504;81;21363;-72
2021/06/02 06:39:29;;;;;;;4.53;3.08;;;;;;;10.07;86.12;99986.59;1727451;80;20896;-71
2021/06/02 06:41:56;;;;;;;6.53;3.42;;;;;;;10.10;86.11;99994.25;1743804;79;22256;-72
2021/06/02 06:44:23;;;;;;;7.65;3.55;;;;;;;10.12;86.05;99994.47;1745112;80;21812;-72
2021/06/02 06:46:54;;;;;;;5.00;3.27;;;;;;;10.16;86.00;99991.94;1766536;78;21044;-70
2021/06/02 06:49:23;;;;;;;4.03;3.40;;;;;;;10.19;85.97;99989.52;1756714;80;21511;-70
2021/06/02 06:51:54;;;;;;;5.05;3.65;;;;;;;10.22;85.89;99992.76;1759358;80;21115;-72
2021/06/02 06:54:22;;;;;;;5.50;3.30;;;;;;;10.25;85.86;99992.52;1770634;80;21025;-70
2021/06/02 06:56:49;;;;;;;7.35;3.10;;;;;;;10.28;85.72;99993.58;1736004;80;21831;-70
2021/06/02 06:59:17;;;;;;;5.55;3.37;;;;;;;10.28;85.58;99996.70;1758148;79;20972;-71
2021/06/02 07:01:44;;;;;;;10.05;3.15;;;;;;;10.31;85.55;99998.59;1758541;79;21063;-72
2021/06/02 07:04:10;;;;;;;4.62;3.30;;;;;;;10.34;85.50;99998.00;1757836;79;20921;-71
2021/06/02 07:06:38;;;;;;;5.35;2.87;;;;;;;10.37;85.45;99992.45;1742393;80;21661;-69
2021/06/02 07:09:06;;;;;;;6.17;3.80;;;;;;;10.39;85.42;99991.83;1743707;80;21809;-70
2021/06/02 07:11:40;;;;;;;4.65;3.05;;;;;;;10.40;85.33;99986.41;1762185;80;21027;-69
2021/06/02 07:14:02;;;;;;;4.55;3.42;;;;;;;10.43;85.25;99986.66;1755105;80;21008;-70
2021/06/02 07:16:30;;;;;;;4.60;3.22;;;;;;;10.44;85.17;99981.25;1759399;79;21059;-70
2021/06/02 07:18:57;;;;;;;6.55;3.83;;;;;;;10.45;85.08;99982.91;1754854;79;20838;-71
2021/06/02 07:21:25;;;;;;;5.92;3.40;;;;;;;10.49;85.07;99983.48;1767042;79;21883;-69
2021/06/02 07:23:52;;;;;;;3.42;3.08;;;;;;;10.51;85.06;99990.30;1766231;80;20973;-71
2021/06/02 07:26:18;;;;;;;5.50;4.25;;;;;;;10.54;85.01;99992.70;1739982;79;20960;-70
2021/06/02 07:28:45;;;;;;;7.40;3.77;;;;;;;10.57;84.95;99991.59;1727791;80;20976;-70
2021/06/02 07:31:11;;;;;;;6.60;3.70;;;;;;;10.61;84.88;99995.63;1764568;79;21031;-70
2021/06/02 07:33:38;;;;;;;6.40;3.50;;;;;;;10.65;84.85;100002.83;1754892;80;23313;-70
2021/06/02 07:36:05;;;;;;;6.15;3.33;;;;;;;10.65;84.63;100001.02;1738227;81;20992;-71
2021/06/02 07:38:32;;;;;;;5.50;3.30;;;;;;;10.69;84.58;99994.98;1737311;82;21465;-71
2021/06/02 07:40:58;;;;;;;6.53;3.70;;;;;;;10.72;84.46;100006.14;1695701;82;21462;-71
2021/06/02 07:43:25;;;;;;;7.22;3.10;;;;;;;10.75;84.33;100007.19;1702763;81;21178;-73
2021/06/02 07:45:52;;;;;;;5.58;3.12;;;;;;;10.78;84.19;99998.98;1718972;81;22476;-72
2021/06/02 07:48:18;;;;;;;7.05;3.27;;;;;;;10.81;84.07;99997.42;1731980;81;21531;-70
2021/06/02 07:50:45;;;;;;;5.22;3.05;;;;;;;10.84;83.88;99991.86;1717933;82;21531;-70
2021/06/02 07:53:11;;;;;;;4.83;3.35;;;;;;;10.86;83.69;99989.92;1721989;81;21444;-69
2021/06/02 07:55:38;;;;;;;4.20;3.05;;;;;;;10.92;83.56;99989.05;1737885;81;21032;-70
2021/06/02 07:58:06;;;;;;;5.42;3.17;;;;;;;10.96;83.42;99983.84;1720584;81;21737;-70
2021/06/02 08:00:32;;;;;;;7.58;3.30;;;;;;;10.99;83.28;99983.07;1707035;83;20945;-69
2021/06/02 08:02:59;;;;;;;4.60;2.75;;;;;;;11.02;82.88;99985.47;1718780;81;20970;-71
2021/06/02 08:05:25;;;;;;;7.33;3.15;;;;;;;11.05;82.75;99994.44;1731648;81;20994;-70
2021/06/02 08:07:52;;;;;;;8.18;3.08;;;;;;;11.07;82.60;99994.30;1706852;81;20994;-70
2021/06/02 08:10:19;;;;;;;5.03;3.45;;;;;;;11.10;82.41;99998.02;1722907;81;21798;-71
2021/06/02 08:12:47;;;;;;;4.22;2.75;;;;;;;11.14;82.32;99995.45;1705654;83;21061;-70
2021/06/02 08:15:17;;;;;;;6.03;3.20;;;;;;;11.17;82.05;100003.09;1725003;81;20977;-69
2021/06/02 08:17:43;;;;;;;5.45;3.58;;;;;;;11.21;81.99;100007.16;1702041;82;21491;-69
2021/06/02 08:20:13;;;;;;;6.20;3.27;;;;;;;11.25;81.90;100011.20;1716089;81;20958;-69
2021/06/02 08:22:40;;;;;;;5.37;2.67;;;;;;;11.29;81.79;100012.61;1709349;80;22444;-69
2021/06/02 08:25:10;;;;;;;3.85;2.50;;;;;;;11.32;81.54;100013.66;1737042;78;20981;-70
2021/06/02 08:27:38;;;;;;;7.22;3.00;;;;;;;11.33;81.28;100022.42;1797265;79;20936;-69
2021/06/02 08:30:07;;;;;;;8.58;3.95;;;;;;;11.34;81.10;100023.61;1809555;78;20992;-70
2021/06/02 08:32:34;;;;;;;9.40;3.52;;;;;;;11.36;81.05;100026.11;1762374;79;21637;-70
2021/06/02 08:35:00;;;;;;;7.47;3.10;;;;;;;11.37;80.93;100031.74;1700274;81;22588;-71
2021/06/02 08:37:27;;;;;;;7.50;3.22;;;;;;;11.37;81.01;100033.91;1740473;81;21598;-72
2021/06/02 08:39:54;;;;;;;5.22;3.40;;;;;;;11.39;81.11;100038.59;1732807;81;21091;-71
2021/06/02 08:42:21;;;;;;;8.13;3.15;;;;;;;11.42;81.25;100033.03;1724177;81;21048;-70
2021/06/02 08:44:47;;;;;;;4.60;2.80;;;;;;;11.44;81.38;100036.85;1706948;81;21400;-71
2021/06/02 08:47:14;;;;;;;6.67;3.25;;;;;;;11.41;81.57;100037.97;1699991;81;22612;-71
2021/06/02 08:49:40;;;;;;;4.83;3.27;;;;;;;11.33;81.67;100045.73;1706871;81;21165;-71
2021/06/02 08:52:08;;;;;;;7.55;3.45;;;;;;;11.32;81.94;100049.84;1717525;81;21001;-71
2021/06/02 08:54:35;;;;;;;7.47;3.10;;;;;;;11.28;82.08;100051.06;1732233;81;20968;-71
2021/06/02 08:57:06;;;;;;;4.33;2.98;;;;;;;11.29;82.21;100052.27;1727492;81;20973;-69
2021/06/02 08:59:33;;;;;;;6.58;3.77;;;;;;;11.27;82.42;100047.58;1700511;81;22489;-71
2021/06/02 09:01:59;;;;;;;4.72;3.05;;;;;;;11.24;82.56;100054.47;1740037;82;21148;-70
2021/06/02 09:04:27;;;;;;;4.75;3.12;;;;;;;11.23;82.73;100051.96;1720402;81;21159;-70
2021/06/02 09:06:55;;;;;;;7.92;3.60;;;;;;;11.24;82.91;100058.44;1732197;80;21092;-70
2021/06/02 09:09:21;;;;;;;5.90;3.70;;;;;;;11.25;82.96;100056.63;1698799;81;21017;-70
2021/06/02 09:11:49;;;;;;;4.72;2.70;;;;;;;11.27;83.02;100057.32;1732813;81;21805;-71
2021/06/02 09:14:36;;;;;;;5.60;3.20;;;;;;;11.29;83.11;100054.92;1729025;81;20921;-72
2021/06/02 09:17:06;;;;;;;4.28;2.75;;;;;;;11.30;83.13;100049.98;1723191;81;21453;-69
2021/06/02 09:19:38;;;;;;;4.75;3.15;;;;;;;11.30;83.13;100051.78;1716079;81;21627;-72
2021/06/02 09:22:15;;;;;;;4.05;2.55;;;;;;;11.29;83.09;100053.59;1711724;81;20954;-70
2021/06/02 09:25:01;;;;;;;4.03;2.60;;;;;;;11.27;83.11;100050.22;1723015;80;21812;-71
2021/06/02 09:27:56;;;;;;;7.45;3.10;;;;;;;11.27;83.09;100048.91;1724048;81;21044;-71
2021/06/02 09:30:38;;;;;;;3.77;2.83;;;;;;;11.28;83.09;100048.41;1724199;81;21545;-71
2021/06/02 09:33:04;;;;;;;3.92;2.90;;;;;;;11.32;83.14;100055.96;1738848;81;21040;-70
2021/06/02 09:35:43;;;;;;;4.78;2.90;;;;;;;11.33;82.91;100050.19;1724739;81;21040;-70
2021/06/02 09:38:24;;;;;;;3.90;2.80;;;;;;;11.33;82.86;100047.05;1707930;81;22248;-70
2021/06/02 09:40:56;;;;;;;4.45;2.92;;;;;;;11.34;82.88;100053.18;1701315;81;21698;-70
2021/06/02 09:43:33;;;;;;;4.33;3.00;;;;;;;11.37;82.98;100060.83;1723070;81;21008;-70
2021/06/02 09:46:09;;;;;;;4.28;2.62;;;;;;;11.38;83.07;100048.80;1725922;81;21088;-70
2021/06/02 09:49:00;;;;;;;7.12;2.60;;;;;;;11.41;83.16;100047.22;1707066;81;21028;-70
2021/06/02 09:51:38;;;;;;;4.10;2.80;;;;;;;11.42;83.33;100062.11;1702773;81;21829;-70
2021/06/02 09:54:06;;;;;;;4.90;2.90;;;;;;;11.44;83.46;100057.52;1744590;81;20944;-70
2021/06/02 09:56:44;;;;;;;6.92;2.60;;;;;;;11.44;83.51;100054.88;1744057;80;20949;-70
2021/06/02 09:59:13;;;;;;;4.67;2.90;;;;;;;11.45;83.54;100051.74;1714861;81;21017;-70
2021/06/02 10:02:00;;;;;;;5.60;2.70;;;;;;;11.45;83.51;100056.55;1738456;81;20989;-70
2021/06/02 10:04:36;;;;;;;4.25;2.58;;;;;;;11.47;83.56;100057.73;1700209;81;21771;-69
2021/06/02 10:07:04;;;;;;;5.62;3.35;;;;;;;11.47;83.47;100047.98;1727313;81;20885;-70
2021/06/02 10:09:34;;;;;;;3.95;2.90;;;;;;;11.45;83.26;100051.74;1738810;81;20948;-70
2021/06/02 10:12:07;;;;;;;3.65;2.75;;;;;;;11.44;83.29;100048.75;1726187;82;21077;-70
2021/06/02 10:14:35;;;;;;;;;;;;;;;11.42;83.20;100053.34;1703861;82;21024;-70
2021/06/02 10:17:03;;;;;;;7.00;3.20;;;;;;;11.43;83.25;100061.14;1709002;81;20239;-70
2021/06/02 10:19:40;;;;;;;6.40;2.90;;;;;;;11.44;83.32;100056.69;1699728;81;21018;-70
2021/06/02 10:22:27;;;;;;;6.05;3.20;;;;;;;11.44;83.37;100068.10;1726936;81;21388;-70
2021/06/02 10:24:57;;;;;;;4.87;2.80;;;;;;;11.45;83.43;100075.55;1727921;81;20983;-69
2021/06/02 10:27:24;;;;;;;4.30;2.75;;;;;;;11.49;83.52;100074.81;1740478;81;20970;-73
2021/06/02 10:29:52;;;;;;;5.78;3.20;;;;;;;11.54;83.65;100074.73;1732254;80;21822;-69
2021/06/02 10:32:19;;;;;;;6.03;3.10;;;;;;;11.57;83.67;100074.45;1758514;80;20837;-73
2021/06/02 10:34:47;;;;;;;6.35;3.00;;;;;;;11.58;83.72;100074.84;1758865;79;21218;-71
2021/06/02 10:37:16;;;;;;;5.33;2.72;;;;;;;11.60;83.75;100080.82;1740723;81;21082;-70
2021/06/02 10:39:47;;;;;;;3.45;2.70;;;;;;;11.67;83.87;100079.77;1738478;81;21075;-71
2021/06/02 10:42:30;;;;;;;6.58;3.20;;;;;;;11.71;83.89;100082.52;1698661;82;21828;-72
2021/06/02 10:45:03;;;;;;;7.17;3.10;;;;;;;11.75;83.91;100081.25;1764791;79;21452;-69
2021/06/02 10:47:32;;;;;;;6.62;2.95;;;;;;;11.80;83.94;100083.05;1732379;80;21415;-70
2021/06/02 10:49:59;;;;;;;6.45;2.85;;;;;;;11.83;83.94;100086.73;1772163;80;20928;-71
2021/06/02 10:52:40;;;;;;;5.40;3.12;;;;;;;11.85;84.02;100083.46;1778271;80;21327;-71
2021/06/02 10:55:42;;;;;;;5.78;2.87;;;;;;;11.87;84.03;100080.22;1772021;80;22502;-70
2021/06/02 10:58:26;;;;;;;5.70;2.90;;;;;;;11.91;84.05;100088.22;1769981;80;21361;-70
2021/06/02 11:01:17;;;;;;;4.75;2.62;;;;;;;11.94;84.03;100083.97;1762529;79;20963;-70
2021/06/02 11:04:09;;;;;;;6.22;3.12;;;;;;;11.99;84.00;100089.70;1732672;80;21449;-70
2021/06/02 11:06:42;;;;;;;6.12;3.17;;;;;;;12.04;83.98;100087.45;1760751;80;21008;-70
2021/06/02 11:09:11;;;;;;;6.92;3.22;;;;;;;12.07;83.98;100093.48;1766152;80;21566;-71
2021/06/02 11:11:44;;;;;;;6.60;3.27;;;;;;;12.10;84.00;100087.89;1770861;80;21648;-71
2021/06/02 11:14:20;;;;;;;6.85;3.20;;;;;;;12.15;84.06;100097.08;1764071;80;20928;-71
2021/06/02 11:17:02;;;;;;;6.42;3.45;;;;;;;12.18;84.08;100102.11;1756859;79;20968;-71
2021/06/02 11:19:37;;;;;;;7.15;3.62;;;;;;;12.21;84.14;100085.94;1754233;79;20992;-71
2021/06/02 11:22:06;;;;;;;;;;;;;;;12.21;84.08;100095.20;1755394;80;22657;-71
2021/06/02 11:24:40;;;;;;;5.35;3.55;;;;;;;12.22;84.10;100100.84;1738418;81;20139;-71
2021/06/02 11:27:17;;;;;;;5.15;3.50;;;;;;;12.23;84.16;100100.36;1758740;80;20956;-71
2021/06/02 11:29:54;;;;;;;4.85;3.35;;;;;;;12.23;84.25;100087.12;1762053;80;20981;-71
2021/06/02 11:32:31;;;;;;;7.17;4.17;;;;;;;12.25;84.34;100092.62;1755650;80;21008;-71
2021/06/02 11:35:02;;;;;;;5.17;3.37;;;;;;;12.28;84.38;100093.69;1761949;80;22251;-71
2021/06/02 11:37:30;;;;;;;9.08;3.77;;;;;;;12.32;84.29;100084.96;1770898;80;20956;-71
2021/06/02 11:40:03;;;;;;;5.40;4.10;;;;;;;12.39;84.29;100091.37;1734403;79;20970;-71
2021/06/02 11:42:37;;;;;;;6.60;3.95;;;;;;;12.45;84.35;100092.61;1714126;81;21459;-70
2021/06/02 11:45:16;;;;;;;10.82;3.85;;;;;;;12.49;84.39;100094.85;1736303;82;21024;-71
2021/06/02 11:47:46;;;;;;;6.92;3.87;;;;;;;12.53;84.49;100102.02;1738980;81;22508;-70
2021/06/02 11:50:20;;;;;;;6.20;3.80;;;;;;;12.53;84.56;100098.05;1722906;81;21187;-71
2021/06/02 11:52:56;;;;;;;6.67;3.67;;;;;;;12.57;84.67;100102.10;1706112;81;21106;-72
2021/06/02 11:55:23;;;;;;;8.20;3.60;;;;;;;12.60;84.77;100103.97;1730660;81;21407;-71
2021/06/02 11:57:51;;;;;;;5.40;3.47;;;;;;;12.63;84.87;100098.87;1705720;83;21103;-70
2021/06/02 12:00:26;;;;;;;4.42;3.08;;;;;;;12.67;84.95;100106.06;1704839;83;21834;-75
2021/06/02 12:03:06;;;;;;;7.28;3.22;;;;;;;12.68;85.06;100098.45;1707485;83;21408;-72
2021/06/02 12:05:40;;;;;;;6.58;3.65;;;;;;;12.66;85.09;100099.93;1725458;81;21203;-70
2021/06/02 12:08:16;;;;;;;7.65;3.45;;;;;;;12.62;85.17;100101.17;1732275;81;21006;-70
2021/06/02 12:10:48;;;;;;;5.97;3.67;;;;;;;12.60;85.28;100106.62;1710585;81;20982;-72
2021/06/02 12:13:22;;;;;;;;;;;;;;;12.60;85.41;100107.95;1725378;80;21099;-72
2021/06/02 12:15:53;;;;;;;5.15;3.83;;;;;;;12.61;85.52;100112.75;1705613;81;20158;-73
2021/06/02 12:18:35;;;;;;;7.25;3.65;;;;;;;12.60;85.62;100117.70;1722861;81;21008;-71
2021/06/02 12:21:17;;;;;;;4.83;3.62;;;;;;;12.63;85.70;100115.26;1701314;81;21014;-71
2021/06/02 12:24:02;;;;;;;7.53;3.52;;;;;;;12.66;85.81;100111.02;1698963;82;21142;-72
2021/06/02 12:26:40;;;;;;;4.42;3.40;;;;;;;12.65;85.88;100111.52;1730036;81;21791;-72
2021/06/02 12:29:10;;;;;;;6.85;3.02;;;;;;;12.68;85.92;100120.98;1734065;81;21095;-72
2021/06/02 12:31:45;;;;;;;7.53;3.37;;;;;;;12.71;86.00;100120.69;1749010;80;20953;-72